Time;durP1;ratioP1;P1;durP2;ratioP2;P2;SDS_P1;SDS_P2;PMS_P1;PMS_P2;Temp;Humidity;BMP_temperature;BMP_pressure;BME280_temperature;BME280_humidity;BME280_pressure;Samples;Min_cycle;Max_cycle;Signal;HPM_P1;HPM_P2
2021/12/25 00:00:25;;;;;;;26.10;18.30;;;;;;;-145.45;100.00;62759.84;5224494;28;20038;-86
2021/12/25 00:02:56;;;;;;;26.55;17.83;;;;;;;-145.45;100.00;62759.84;5227329;28;20375;-86
2021/12/25 00:05:28;;;;;;;26.05;18.30;;;;;;;-145.45;100.00;62759.84;5209037;28;20495;-86
2021/12/25 00:07:59;;;;;;;27.83;18.40;;;;;;;-145.45;100.00;62759.84;5208755;28;20051;-86
2021/12/25 00:10:32;;;;;;;22.60;16.55;;;;;;;-145.45;100.00;62759.84;5220748;28;20585;-86
2021/12/25 00:13:03;;;;;;;23.88;16.25;;;;;;;-145.45;100.00;62759.84;5200726;28;20022;-86
2021/12/25 00:15:35;;;;;;;23.90;16.65;;;;;;;-145.45;100.00;62759.84;5217387;28;20036;-86
2021/12/25 00:18:06;;;;;;;26.20;17.48;;;;;;;-145.45;100.00;62759.84;5218014;28;20038;-86
2021/12/25 00:20:38;;;;;;;26.90;17.52;;;;;;;-145.45;100.00;62759.84;5217320;28;20026;-86
2021/12/25 00:23:10;;;;;;;23.80;17.08;;;;;;;-145.45;100.00;62759.84;5216536;28;20049;-86
2021/12/25 00:25:47;;;;;;;26.17;17.73;;;;;;;-145.45;100.00;62759.84;5196553;28;20031;-86
2021/12/25 00:36:21;;;;;;;26.10;17.33;;;;;;;-145.45;100.00;62759.84;5218283;28;20031;-86
2021/12/25 00:38:54;;;;;;;21.25;15.50;;;;;;;-145.45;100.00;62759.84;5219767;28;20034;-86
2021/12/25 00:41:25;;;;;;;22.95;16.48;;;;;;;-145.45;100.00;62759.84;5221656;28;20038;-86
2021/12/25 00:43:56;;;;;;;26.48;16.30;;;;;;;-145.45;100.00;62759.84;5219171;28;20363;-86
2021/12/25 00:46:28;;;;;;;25.77;16.52;;;;;;;-145.45;100.00;62759.84;5189567;28;28041;-86
2021/12/25 00:48:59;;;;;;;33.92;21.10;;;;;;;-145.45;100.00;62759.84;5212156;28;20058;-86
2021/12/25 00:51:30;;;;;;;29.02;17.90;;;;;;;-145.45;100.00;62759.84;5221746;28;20113;-86
2021/12/25 00:54:02;;;;;;;28.02;18.48;;;;;;;-145.45;100.00;62759.84;5222694;28;20057;-86
2021/12/25 00:56:33;;;;;;;27.83;17.60;;;;;;;-145.45;100.00;62759.84;5221761;28;20070;-86
2021/12/25 00:59:04;;;;;;;28.88;18.23;;;;;;;-145.45;100.00;62759.84;5222541;28;20061;-86
2021/12/25 01:01:37;;;;;;;28.80;17.00;;;;;;;-145.45;100.00;62759.84;5230955;28;20022;-86
2021/12/25 01:04:08;;;;;;;29.58;19.05;;;;;;;-145.45;100.00;62759.84;5213322;28;20034;-86
2021/12/25 01:06:39;;;;;;;36.85;21.48;;;;;;;-145.45;100.00;62759.84;5229017;28;20082;-86
2021/12/25 01:09:11;;;;;;;32.60;19.38;;;;;;;-145.45;100.00;62759.84;5222251;28;20027;-86
2021/12/25 01:11:46;;;;;;;32.28;19.67;;;;;;;-145.45;100.00;62759.84;5197924;28;20450;-86
2021/12/25 01:14:27;;;;;;;35.47;20.75;;;;;;;-145.45;100.00;62759.84;5200419;28;20030;-86
2021/12/25 01:30:45;;;;;;;34.88;20.70;;;;;;;-145.45;100.00;62759.84;5220916;28;20125;-86
2021/12/25 01:33:34;;;;;;;37.85;22.45;;;;;;;-145.45;100.00;62759.84;5219540;28;20031;-86
2021/12/25 01:39:01;;;;;;;43.75;24.83;;;;;;;-145.45;100.00;62759.84;5220941;28;20066;-86
2021/12/25 01:49:51;;;;;;;44.88;26.48;;;;;;;-145.45;100.00;62759.84;5219970;28;20387;-86
2021/12/25 01:52:29;;;;;;;42.72;25.63;;;;;;;-145.45;100.00;62759.84;5221238;28;20026;-86
2021/12/25 01:55:07;;;;;;;51.35;28.60;;;;;;;-145.45;100.00;62759.84;5210806;28;20031;-86
2021/12/25 01:57:40;;;;;;;44.50;26.17;;;;;;;-145.45;100.00;62759.84;5216200;28;20046;-86
2021/12/25 02:00:55;;;;;;;46.35;29.08;;;;;;;-145.45;100.00;62759.84;5203531;28;20022;-86
2021/12/25 02:03:30;;;;;;;44.40;26.20;;;;;;;-145.45;100.00;62759.84;5213957;28;20022;-86
2021/12/25 02:06:03;;;;;;;45.20;28.08;;;;;;;-145.45;100.00;62759.84;5214343;28;20077;-86
2021/12/25 02:08:36;;;;;;;46.47;28.00;;;;;;;-145.45;100.00;62759.84;5203558;28;20455;-86
2021/12/25 02:11:10;;;;;;;45.28;28.20;;;;;;;-145.45;100.00;62759.84;5215508;28;20374;-86
2021/12/25 02:13:43;;;;;;;45.78;28.05;;;;;;;-145.45;100.00;62759.84;5219954;28;20038;-86
2021/12/25 02:16:18;;;;;;;47.15;29.75;;;;;;;-145.45;100.00;62759.84;5221745;28;20041;-86
2021/12/25 02:21:35;;;;;;;49.42;31.13;;;;;;;-145.45;100.00;62759.84;5214994;28;20046;-86
2021/12/25 02:24:11;;;;;;;50.20;31.85;;;;;;;-145.45;100.00;62759.84;5220166;28;20053;-86
2021/12/25 02:26:44;;;;;;;56.83;32.58;;;;;;;-145.45;100.00;62759.84;5209327;28;20356;-86
2021/12/25 02:29:16;;;;;;;54.05;32.10;;;;;;;-145.45;100.00;62759.84;5228235;28;20064;-86
2021/12/25 02:31:47;;;;;;;51.90;30.45;;;;;;;-145.45;100.00;62759.84;5226353;28;20045;-86
2021/12/25 02:34:18;;;;;;;51.92;31.20;;;;;;;-145.45;100.00;62759.84;5225086;28;20060;-86
2021/12/25 02:36:50;;;;;;;50.05;30.25;;;;;;;-145.45;100.00;62759.84;5225442;28;20027;-86
2021/12/25 02:39:21;;;;;;;51.15;31.00;;;;;;;-145.45;100.00;62759.84;5201270;28;20022;-86
2021/12/25 02:41:53;;;;;;;48.92;29.88;;;;;;;-145.45;100.00;62759.84;5182825;28;20098;-86
2021/12/25 02:44:24;;;;;;;51.65;30.02;;;;;;;-145.45;100.00;62759.84;5199384;28;20478;-86
2021/12/25 02:46:58;;;;;;;47.42;28.23;;;;;;;-145.45;100.00;62759.84;5202818;28;20470;-86
2021/12/25 02:49:30;;;;;;;55.45;31.98;;;;;;;-145.45;100.00;62759.84;5219132;28;20034;-86
2021/12/25 02:52:01;;;;;;;43.05;28.30;;;;;;;-145.45;100.00;62759.84;5219450;28;20032;-86
2021/12/25 02:54:33;;;;;;;44.30;26.92;;;;;;;-145.45;100.00;62759.84;5219811;28;20403;-86
2021/12/25 02:57:04;;;;;;;41.90;26.85;;;;;;;-145.45;100.00;62759.84;5207818;28;20392;-86
2021/12/25 02:59:35;;;;;;;35.38;25.38;;;;;;;-145.45;100.00;62759.84;5215810;28;20027;-86
2021/12/25 03:02:06;;;;;;;39.22;24.88;;;;;;;-145.45;100.00;62759.84;5211817;28;20023;-86
2021/12/25 03:04:42;;;;;;;38.80;25.30;;;;;;;-145.45;100.00;62759.84;5184003;28;20399;-86
2021/12/25 03:07:14;;;;;;;35.80;23.25;;;;;;;-145.45;100.00;62759.84;5218688;28;20344;-86
2021/12/25 03:09:45;;;;;;;39.70;23.52;;;;;;;-145.45;100.00;62759.84;5199026;28;20046;-86
2021/12/25 03:12:25;;;;;;;38.55;23.63;;;;;;;-145.45;100.00;62759.84;5220565;28;20459;-86
2021/12/25 03:15:07;;;;;;;32.30;21.60;;;;;;;-145.45;100.00;62759.84;5201510;28;20030;-86
2021/12/25 03:17:39;;;;;;;34.67;22.50;;;;;;;-145.45;100.00;62759.84;5219744;28;20038;-86
2021/12/25 03:20:11;;;;;;;35.83;23.65;;;;;;;-145.45;100.00;62759.84;5217910;28;20037;-86
2021/12/25 03:22:43;;;;;;;37.88;24.17;;;;;;;-145.45;100.00;62759.84;5199990;28;20413;-86
2021/12/25 03:25:16;;;;;;;34.05;21.73;;;;;;;-145.45;100.00;62759.84;5210666;28;20035;-86
2021/12/25 03:27:48;;;;;;;37.03;23.27;;;;;;;-145.45;100.00;62759.84;5220350;28;20030;-86
2021/12/25 03:30:22;;;;;;;43.75;22.88;;;;;;;-145.45;100.00;62759.84;5219152;28;20542;-86
2021/12/25 03:32:55;;;;;;;42.40;23.98;;;;;;;-145.45;100.00;62759.84;5196073;28;20027;-86
2021/12/25 03:35:26;;;;;;;39.38;22.25;;;;;;;-145.45;100.00;62759.84;5188938;28;20022;-86
2021/12/25 03:37:58;;;;;;;39.97;23.48;;;;;;;-145.45;100.00;62759.84;5201855;28;20112;-86
2021/12/25 03:40:29;;;;;;;36.92;21.85;;;;;;;-145.45;100.00;62759.84;5227573;28;20372;-86
2021/12/25 03:43:00;;;;;;;42.13;22.65;;;;;;;-145.45;100.00;62759.84;5221570;28;20046;-86
2021/12/25 03:45:33;;;;;;;35.00;20.88;;;;;;;-145.45;100.00;62759.84;5225511;28;20031;-86
2021/12/25 03:48:14;;;;;;;35.88;21.67;;;;;;;-145.45;100.00;62759.84;5219433;28;20033;-86
2021/12/25 03:59:15;;;;;;;36.15;20.88;;;;;;;-145.45;100.00;62759.84;5219354;28;20035;-86
2021/12/25 04:01:53;;;;;;;34.25;20.35;;;;;;;-145.45;100.00;62759.84;5201784;28;20027;-86
2021/12/25 04:04:33;;;;;;;36.67;21.33;;;;;;;-145.45;100.00;62759.84;5218811;28;20742;-86
2021/12/25 04:07:10;;;;;;;37.63;22.05;;;;;;;-145.45;100.00;62759.84;5217904;28;20490;-86
2021/12/25 04:09:42;;;;;;;36.10;21.33;;;;;;;-145.45;100.00;62759.84;5219522;28;20061;-86
2021/12/25 04:12:14;;;;;;;39.47;21.75;;;;;;;-145.45;100.00;62759.84;5219698;28;20484;-86
2021/12/25 04:14:45;;;;;;;39.13;22.45;;;;;;;-145.45;100.00;62759.84;5205356;28;20052;-86
2021/12/25 04:17:17;;;;;;;38.70;22.35;;;;;;;-145.45;100.00;62759.84;5222534;28;20038;-86
2021/12/25 04:19:48;;;;;;;40.67;23.17;;;;;;;-145.45;100.00;62759.84;5222434;28;20394;-86
2021/12/25 04:22:27;;;;;;;42.70;24.45;;;;;;;-145.45;100.00;62759.84;5219121;28;20434;-86
2021/12/25 04:24:58;;;;;;;41.53;23.17;;;;;;;-145.45;100.00;62759.84;5227063;28;20025;-86
2021/12/25 04:27:30;;;;;;;40.67;23.60;;;;;;;-145.45;100.00;62759.84;5218820;28;20456;-86
2021/12/25 04:30:06;;;;;;;39.72;23.20;;;;;;;-145.45;100.00;62759.84;5224692;28;20027;-86
2021/12/25 05:06:05;;;;;;;44.63;27.17;;;;;;;-145.45;100.00;62759.84;5221105;28;20034;-86
2021/12/25 05:08:36;;;;;;;41.80;25.98;;;;;;;-145.45;100.00;62759.84;5221916;28;20503;-86
2021/12/25 05:11:08;;;;;;;44.67;27.20;;;;;;;-145.45;100.00;62759.84;5222178;28;20065;-86
2021/12/25 05:13:39;;;;;;;45.63;25.75;;;;;;;-145.45;100.00;62759.84;5220858;28;20019;-86
2021/12/25 05:16:10;;;;;;;46.92;27.08;;;;;;;-145.45;100.00;62759.84;5221523;28;20065;-86
2021/12/25 05:18:42;;;;;;;47.42;28.13;;;;;;;-145.45;100.00;62759.84;5205607;28;20019;-86
2021/12/25 05:21:13;;;;;;;45.35;27.55;;;;;;;-145.45;100.00;62759.84;5208412;28;20038;-86
2021/12/25 05:23:46;;;;;;;47.45;28.77;;;;;;;-145.45;100.00;62759.84;5221225;28;20022;-86
2021/12/25 05:26:18;;;;;;;45.33;27.42;;;;;;;-145.45;100.00;62759.84;5221124;28;20023;-86
2021/12/25 05:28:58;;;;;;;48.00;27.92;;;;;;;-145.45;100.00;62759.84;5221244;28;20340;-86
2021/12/25 05:31:32;;;;;;;48.47;29.27;;;;;;;-145.45;100.00;62759.84;5221542;28;20395;-86
2021/12/25 05:34:04;;;;;;;50.67;27.13;;;;;;;-145.45;100.00;62759.84;5203854;28;20030;-86
2021/12/25 05:36:35;;;;;;;47.80;26.15;;;;;;;-145.45;100.00;62759.84;5218578;28;20045;-86
2021/12/25 05:39:11;;;;;;;51.45;28.17;;;;;;;-145.45;100.00;62759.84;5221108;28;20023;-86
2021/12/25 05:41:42;;;;;;;50.30;27.83;;;;;;;-145.45;100.00;62759.84;5221429;28;20014;-86
2021/12/25 05:44:14;;;;;;;48.20;26.88;;;;;;;-145.45;100.00;62759.84;5221091;28;20037;-86
2021/12/25 05:46:45;;;;;;;51.70;26.98;;;;;;;-145.45;100.00;62759.84;5221775;28;20022;-86
2021/12/25 05:49:17;;;;;;;53.05;27.27;;;;;;;-145.45;100.00;62759.84;5221598;28;20030;-86
2021/12/25 05:51:48;;;;;;;46.75;26.00;;;;;;;-145.45;100.00;62759.84;5218636;28;20031;-86
2021/12/25 05:54:19;;;;;;;52.35;28.65;;;;;;;-145.45;100.00;62759.84;5218249;28;20065;-86
2021/12/25 05:56:51;;;;;;;51.70;26.92;;;;;;;-145.45;100.00;62759.84;5219874;28;20054;-86
2021/12/25 05:59:22;;;;;;;51.45;27.48;;;;;;;-145.45;100.00;62759.84;5204477;28;20030;-86
2021/12/25 06:01:53;;;;;;;52.42;25.75;;;;;;;-145.45;100.00;62759.84;5221468;28;41609;-86
2021/12/25 06:04:25;;;;;;;56.78;28.55;;;;;;;-145.45;100.00;62759.84;5219638;28;20023;-86
2021/12/25 06:06:56;;;;;;;59.00;28.05;;;;;;;-145.45;100.00;62759.84;5229294;28;20070;-86
2021/12/25 06:09:27;;;;;;;54.92;27.90;;;;;;;-145.45;100.00;62759.84;5217164;28;20041;-86
2021/12/25 06:11:59;;;;;;;61.63;28.08;;;;;;;-145.45;100.00;62759.84;5201903;28;43179;-86
2021/12/25 06:14:30;;;;;;;56.67;28.90;;;;;;;-145.45;100.00;62759.84;5203782;28;20026;-86
2021/12/25 06:17:04;;;;;;;56.97;27.65;;;;;;;-145.45;100.00;62759.84;5208743;28;20462;-86
2021/12/25 06:19:35;;;;;;;54.92;27.52;;;;;;;-145.45;100.00;62759.84;5223251;28;20030;-85
2021/12/25 06:22:06;;;;;;;53.53;28.85;;;;;;;-145.45;100.00;62759.84;5231453;28;20049;-86
2021/12/25 06:24:40;;;;;;;52.55;26.35;;;;;;;-145.45;100.00;62759.84;5210932;28;20026;-85
2021/12/25 06:27:12;;;;;;;50.78;25.95;;;;;;;-145.45;100.00;62759.84;5212077;28;20030;-87
2021/12/25 06:29:43;;;;;;;45.13;24.60;;;;;;;-145.45;100.00;62759.84;5225972;28;20027;-86
2021/12/25 06:32:15;;;;;;;47.83;23.77;;;;;;;-145.45;100.00;62759.84;5209512;28;20022;-86
2021/12/25 06:34:47;;;;;;;46.03;24.45;;;;;;;-145.45;100.00;62759.84;5224914;28;21800;-86
2021/12/25 06:37:19;;;;;;;47.13;25.17;;;;;;;-145.45;100.00;62759.84;5226359;28;20133;-86
2021/12/25 06:39:50;;;;;;;46.72;24.52;;;;;;;-145.45;100.00;62759.84;5208949;28;20125;-86
2021/12/25 06:42:22;;;;;;;45.10;24.20;;;;;;;-145.45;100.00;62759.84;5224784;28;20057;-86
2021/12/25 06:44:55;;;;;;;47.00;24.50;;;;;;;-145.45;100.00;62759.84;5222214;28;20029;-86
2021/12/25 06:47:26;;;;;;;46.13;25.42;;;;;;;-145.45;100.00;62759.84;5203219;28;20487;-86
2021/12/25 06:49:57;;;;;;;50.55;24.40;;;;;;;-145.45;100.00;62759.84;5218822;28;20033;-86
2021/12/25 06:52:28;;;;;;;43.65;22.85;;;;;;;-145.45;100.00;62759.84;5217188;28;20034;-86
2021/12/25 06:55:00;;;;;;;45.17;24.52;;;;;;;-145.45;100.00;62759.84;5221204;28;20018;-86
2021/12/25 06:57:32;;;;;;;42.78;23.42;;;;;;;-145.45;100.00;62759.84;5205266;28;20132;-86
2021/12/25 07:00:04;;;;;;;42.72;23.92;;;;;;;-145.45;100.00;62759.84;5220980;28;20022;-86
2021/12/25 07:02:35;;;;;;;42.28;23.10;;;;;;;-145.45;100.00;62759.84;5221393;28;20038;-86
2021/12/25 07:05:07;;;;;;;48.35;24.58;;;;;;;-145.45;100.00;62759.84;5217292;28;20030;-86
2021/12/25 07:07:38;;;;;;;41.63;22.40;;;;;;;-145.45;100.00;62759.84;5222114;28;20070;-86
2021/12/25 07:10:10;;;;;;;46.55;23.77;;;;;;;-145.45;100.00;62759.84;5204757;28;20026;-86
2021/12/25 07:12:45;;;;;;;48.17;24.25;;;;;;;-145.45;100.00;62759.84;5220792;28;20158;-86
2021/12/25 07:15:16;;;;;;;43.33;22.98;;;;;;;-145.45;100.00;62759.84;5219295;28;20022;-87
2021/12/25 07:17:51;;;;;;;50.92;24.10;;;;;;;-145.45;100.00;62759.84;5204649;28;20034;-86
2021/12/25 07:20:22;;;;;;;49.35;24.05;;;;;;;-145.45;100.00;62759.84;5223319;28;20037;-87
2021/12/25 07:22:53;;;;;;;47.28;23.38;;;;;;;-145.45;100.00;62759.84;5202091;28;20030;-86
2021/12/25 07:25:25;;;;;;;46.70;24.05;;;;;;;-145.45;100.00;62759.84;5218808;28;20146;-86
2021/12/25 07:27:57;;;;;;;51.97;24.63;;;;;;;-145.45;100.00;62759.84;5220350;28;20038;-86
2021/12/25 07:30:29;;;;;;;44.80;23.60;;;;;;;-145.45;100.00;62759.84;5203864;28;20030;-86
2021/12/25 07:33:01;;;;;;;46.35;24.25;;;;;;;-145.45;100.00;62759.84;5201084;28;20475;-86
2021/12/25 07:35:32;;;;;;;44.20;21.75;;;;;;;-145.45;100.00;62759.84;5223445;28;20038;-86
2021/12/25 07:38:06;;;;;;;41.50;23.40;;;;;;;-145.45;100.00;62759.84;5232057;28;20053;-86
2021/12/25 07:40:39;;;;;;;42.97;24.15;;;;;;;-145.45;100.00;62759.84;5224025;28;20026;-86
2021/12/25 07:43:14;;;;;;;38.85;21.35;;;;;;;-145.45;100.00;62759.84;5219776;28;20033;-86
2021/12/25 07:45:50;;;;;;;41.50;22.50;;;;;;;-145.45;100.00;62759.84;5225741;28;20117;-86
2021/12/25 07:48:25;;;;;;;43.13;23.77;;;;;;;-145.45;100.00;62759.84;5224557;28;20057;-87
2021/12/25 07:50:57;;;;;;;44.00;22.60;;;;;;;-145.45;100.00;62759.84;5211415;28;20064;-87
2021/12/25 07:53:32;;;;;;;41.45;22.33;;;;;;;-145.45;100.00;62759.84;5227461;28;20030;-86
2021/12/25 07:56:03;;;;;;;40.92;21.35;;;;;;;-145.45;100.00;62759.84;5221184;28;20141;-86
2021/12/25 07:58:35;;;;;;;43.88;24.77;;;;;;;-145.45;100.00;62759.84;5227909;28;20030;-86
2021/12/25 08:01:06;;;;;;;38.47;22.50;;;;;;;-145.45;100.00;62759.84;5228155;28;20030;-86
2021/12/25 08:03:38;;;;;;;34.33;19.80;;;;;;;-145.45;100.00;62759.84;5235454;28;20050;-86
2021/12/25 08:06:10;;;;;;;34.42;19.98;;;;;;;-145.45;100.00;62759.84;5221624;28;20081;-86
2021/12/25 08:08:42;;;;;;;29.65;18.27;;;;;;;-145.45;100.00;62759.84;5210655;28;20479;-86
2021/12/25 08:11:14;;;;;;;31.77;19.63;;;;;;;-145.45;100.00;62759.84;5224585;28;20038;-86
2021/12/25 08:13:45;;;;;;;32.05;18.95;;;;;;;-145.45;100.00;62759.84;5228016;28;20022;-85
2021/12/25 08:16:16;;;;;;;27.52;18.25;;;;;;;-145.45;100.00;62759.84;5212327;28;20502;-86
2021/12/25 08:18:48;;;;;;;29.23;18.40;;;;;;;-145.45;100.00;62759.84;5205259;28;20171;-86
2021/12/25 08:21:19;;;;;;;29.60;16.80;;;;;;;-145.45;100.00;62759.84;5227123;28;20037;-86
2021/12/25 08:23:50;;;;;;;26.45;17.95;;;;;;;-145.45;100.00;62759.84;5214204;28;20068;-86
2021/12/25 08:26:21;;;;;;;25.75;16.48;;;;;;;-145.45;100.00;62759.84;5224669;28;20483;-86
2021/12/25 08:28:53;;;;;;;24.42;17.17;;;;;;;-145.45;100.00;62759.84;5232995;28;20090;-86
2021/12/25 08:31:24;;;;;;;28.48;16.95;;;;;;;-145.45;100.00;62759.84;5225138;28;20026;-86
2021/12/25 08:33:55;;;;;;;26.02;17.02;;;;;;;-145.45;100.00;62759.84;5209384;28;20031;-86
2021/12/25 08:36:27;;;;;;;25.98;16.20;;;;;;;-145.45;100.00;62759.84;5206617;28;20502;-86
2021/12/25 08:38:59;;;;;;;28.13;17.58;;;;;;;-145.45;100.00;62759.84;5227231;28;20048;-86
2021/12/25 08:41:31;;;;;;;26.23;16.85;;;;;;;-145.45;100.00;62759.84;5223292;28;20030;-86
2021/12/25 08:44:08;;;;;;;25.83;15.55;;;;;;;-145.45;100.00;62759.84;5204718;28;20929;-86
2021/12/25 08:46:56;;;;;;;24.48;16.02;;;;;;;-145.45;100.00;62759.84;5213923;28;20544;-86
2021/12/25 08:49:29;;;;;;;23.08;15.80;;;;;;;-145.45;100.00;62759.84;5198459;28;20035;-86
2021/12/25 08:52:06;;;;;;;22.45;16.02;;;;;;;-145.45;100.00;62759.84;5201832;28;20030;-86
2021/12/25 08:54:38;;;;;;;21.75;15.27;;;;;;;-145.45;100.00;62759.84;5203097;28;20487;-86
2021/12/25 08:57:11;;;;;;;26.30;16.08;;;;;;;-145.45;100.00;62759.84;5209514;28;20494;-86
2021/12/25 08:59:42;;;;;;;24.20;14.73;;;;;;;-145.45;100.00;62759.84;5225122;28;20162;-86
2021/12/25 09:02:16;;;;;;;25.60;17.25;;;;;;;-145.45;100.00;62759.84;5229544;28;20038;-86
2021/12/25 09:04:49;;;;;;;23.42;15.80;;;;;;;-145.45;100.00;62759.84;5220091;28;20363;-86
2021/12/25 09:07:20;;;;;;;22.45;15.73;;;;;;;-145.45;100.00;62759.84;5224608;28;20063;-85
2021/12/25 09:09:52;;;;;;;22.42;15.45;;;;;;;-145.45;100.00;62759.84;5220703;28;20491;-85
2021/12/25 09:12:24;;;;;;;24.67;15.75;;;;;;;-145.45;100.00;62759.84;5204933;28;20030;-85
2021/12/25 09:14:56;;;;;;;23.85;15.68;;;;;;;-145.45;100.00;62759.84;5202755;28;20026;-85
2021/12/25 09:17:27;;;;;;;23.17;15.32;;;;;;;-145.45;100.00;62759.84;5221809;28;20431;-86
2021/12/25 09:19:58;;;;;;;18.92;13.57;;;;;;;-145.45;100.00;62759.84;5210812;28;20446;-85
2021/12/25 09:22:31;;;;;;;19.73;14.10;;;;;;;-145.45;100.00;62759.84;5222466;28;20101;-85
2021/12/25 09:25:03;;;;;;;21.05;14.85;;;;;;;-145.45;100.00;62759.84;5204181;28;20039;-84
2021/12/25 09:27:35;;;;;;;19.38;14.77;;;;;;;-145.45;100.00;62759.84;5230488;28;20033;-85
2021/12/25 09:30:07;;;;;;;20.98;14.57;;;;;;;-145.45;100.00;62759.84;5222109;28;20026;-85
2021/12/25 09:32:39;;;;;;;19.90;13.82;;;;;;;-145.45;100.00;62759.84;5207825;28;20037;-85
2021/12/25 09:35:10;;;;;;;19.42;14.02;;;;;;;-145.45;100.00;62759.84;5221935;28;20410;-84
2021/12/25 09:37:42;;;;;;;17.63;14.18;;;;;;;-145.45;100.00;62759.84;5234872;28;20116;-85
2021/12/25 09:40:13;;;;;;;20.67;13.77;;;;;;;-145.45;100.00;62759.84;5209716;28;20360;-85
2021/12/25 09:42:45;;;;;;;19.70;14.50;;;;;;;-145.45;100.00;62759.84;5222463;28;20038;-85
2021/12/25 09:45:16;;;;;;;17.88;14.23;;;;;;;-145.45;100.00;62759.84;5232332;28;20029;-85
2021/12/25 09:47:48;;;;;;;18.30;13.93;;;;;;;-145.45;100.00;62759.84;5234316;28;20034;-85
2021/12/25 09:50:19;;;;;;;19.05;13.80;;;;;;;-145.45;100.00;62759.84;5225502;28;20022;-85
2021/12/25 09:52:51;;;;;;;17.40;13.65;;;;;;;-145.45;100.00;62759.84;5229006;28;20166;-85
2021/12/25 09:55:22;;;;;;;18.45;13.52;;;;;;;-145.45;100.00;62759.84;5226326;28;20494;-85
2021/12/25 09:57:53;;;;;;;19.13;13.27;;;;;;;-145.45;100.00;62759.84;5235715;28;20046;-86
2021/12/25 10:00:26;;;;;;;18.73;14.05;;;;;;;-145.45;100.00;62759.84;5209948;28;35893;-86
2021/12/25 10:02:58;;;;;;;16.70;13.15;;;;;;;-145.45;100.00;62759.84;5227612;28;20026;-85
2021/12/25 10:05:33;;;;;;;17.88;12.73;;;;;;;-145.45;100.00;62759.84;5232450;28;20041;-85
2021/12/25 10:08:27;;;;;;;16.98;13.45;;;;;;;-145.45;100.00;62759.84;5220922;28;20525;-85
2021/12/25 10:11:01;;;;;;;17.58;13.40;;;;;;;-145.45;100.00;62759.84;5201545;28;20042;-86
2021/12/25 10:13:39;;;;;;;19.65;14.25;;;;;;;-145.45;100.00;62759.84;5218397;28;20061;-86
2021/12/25 10:16:21;;;;;;;16.63;12.55;;;;;;;-145.45;100.00;62759.84;5234987;28;20045;-86
2021/12/25 10:19:10;;;;;;;17.60;13.38;;;;;;;-145.45;100.00;62759.84;5214213;28;20040;-85
2021/12/25 10:21:42;;;;;;;16.08;12.40;;;;;;;-145.45;100.00;62759.84;5215957;28;20053;-84
2021/12/25 10:24:25;;;;;;;17.30;14.18;;;;;;;-145.45;100.00;62759.84;5230567;28;20502;-84
2021/12/25 10:27:12;;;;;;;15.48;12.45;;;;;;;-145.45;100.00;62759.84;5210143;28;20558;-85
2021/12/25 10:29:44;;;;;;;17.33;12.90;;;;;;;-145.45;100.00;62759.84;5212388;28;20525;-85
2021/12/25 10:32:21;;;;;;;17.38;12.73;;;;;;;-145.45;100.00;62759.84;5220796;28;20050;-84
2021/12/25 10:34:56;;;;;;;17.05;13.05;;;;;;;-145.45;100.00;62759.84;5219985;28;20375;-85
2021/12/25 10:37:27;;;;;;;17.92;12.40;;;;;;;-145.45;100.00;62759.84;5202164;28;20046;-84
2021/12/25 10:39:58;;;;;;;16.25;12.80;;;;;;;-145.45;100.00;62759.84;5200338;28;20042;-85
2021/12/25 10:42:33;;;;;;;15.65;12.45;;;;;;;-145.45;100.00;62759.84;5182907;28;20036;-84
2021/12/25 10:45:13;;;;;;;15.43;11.85;;;;;;;-145.45;100.00;62759.84;5199923;28;20126;-84
2021/12/25 10:47:44;;;;;;;14.90;11.85;;;;;;;-145.45;100.00;62759.84;5200711;28;20027;-85
2021/12/25 10:50:18;;;;;;;16.20;12.50;;;;;;;-145.45;100.00;62759.84;5199687;28;20037;-85
2021/12/25 10:52:49;;;;;;;15.85;12.55;;;;;;;-145.45;100.00;62759.84;5199872;28;20019;-84
2021/12/25 10:55:23;;;;;;;15.15;11.90;;;;;;;-145.45;100.00;62759.84;5186136;28;20058;-85
2021/12/25 10:57:57;;;;;;;16.95;10.80;;;;;;;-145.45;100.00;62759.84;5202895;28;20034;-84
2021/12/25 11:00:32;;;;;;;12.90;9.95;;;;;;;-145.45;100.00;62759.84;5202632;28;20036;-84
2021/12/25 11:03:08;;;;;;;13.25;9.85;;;;;;;-145.45;100.00;62759.84;5220496;28;20026;-84
2021/12/25 11:05:52;;;;;;;14.27;9.90;;;;;;;-145.45;100.00;62759.84;5219222;28;20033;-85
2021/12/25 11:08:24;;;;;;;12.93;9.32;;;;;;;-145.45;100.00;62759.84;5220045;28;20082;-85
2021/12/25 11:11:08;;;;;;;11.27;8.88;;;;;;;-145.45;100.00;62759.84;5220101;28;20085;-85
2021/12/25 11:13:43;;;;;;;11.82;9.38;;;;;;;-145.45;100.00;62759.84;5201961;28;20037;-85
2021/12/25 11:16:27;;;;;;;11.90;8.88;;;;;;;-145.45;100.00;62759.84;5195871;28;20123;-85
2021/12/25 11:21:35;;;;;;;13.82;8.90;;;;;;;-145.45;100.00;62759.84;5214146;28;20375;-85
2021/12/25 11:24:20;;;;;;;11.20;8.55;;;;;;;-145.45;100.00;62759.84;5207136;28;20383;-84
2021/12/25 11:26:56;;;;;;;9.48;8.07;;;;;;;-145.45;100.00;62759.84;5197688;28;20023;-84
2021/12/25 11:29:29;;;;;;;11.35;8.23;;;;;;;-145.45;100.00;62759.84;5207273;28;20023;-84
2021/12/25 11:32:02;;;;;;;10.57;7.30;;;;;;;-145.45;100.00;62759.84;5219711;28;20042;-84
2021/12/25 11:34:34;;;;;;;9.52;7.43;;;;;;;-145.45;100.00;62759.84;5218641;28;20154;-84
2021/12/25 11:37:06;;;;;;;12.60;7.47;;;;;;;-145.45;100.00;62759.84;5209551;28;20121;-85
2021/12/25 11:39:37;;;;;;;7.93;6.78;;;;;;;-145.45;100.00;62759.84;5198892;28;20431;-84
2021/12/25 11:42:10;;;;;;;10.27;6.72;;;;;;;-145.45;100.00;62759.84;5214944;28;20038;-84
2021/12/25 11:44:48;;;;;;;11.40;6.78;;;;;;;-145.45;100.00;62759.84;5200195;28;20022;-84
2021/12/25 11:47:37;;;;;;;9.85;6.72;;;;;;;-145.45;100.00;62759.84;5217167;28;20105;-84
2021/12/25 11:50:14;;;;;;;8.25;6.53;;;;;;;-145.45;100.00;62759.84;5216657;28;20026;-85
2021/12/25 11:53:18;;;;;;;7.18;5.63;;;;;;;-145.45;100.00;62759.84;5218089;28;20049;-84
2021/12/25 11:58:52;;;;;;;11.60;5.28;;;;;;;-145.45;100.00;62759.84;5215415;28;20081;-85
2021/12/25 12:01:33;;;;;;;7.68;4.60;;;;;;;-145.45;100.00;62759.84;5196674;28;20026;-85
2021/12/25 12:04:10;;;;;;;5.53;4.20;;;;;;;-145.45;100.00;62759.84;5216679;28;20129;-84
2021/12/25 12:06:47;;;;;;;7.57;3.92;;;;;;;-145.45;100.00;62759.84;5200172;28;20054;-84
2021/12/25 12:09:26;;;;;;;4.82;4.07;;;;;;;-145.45;100.00;62759.84;5200187;28;20038;-84
2021/12/25 12:12:03;;;;;;;6.20;3.88;;;;;;;-145.45;100.00;62759.84;5198475;28;20036;-86
2021/12/25 12:14:35;;;;;;;4.57;3.65;;;;;;;-145.45;100.00;62759.84;5198360;28;36856;-84
2021/12/25 12:17:31;;;;;;;4.82;4.20;;;;;;;-145.45;100.00;62759.84;5218267;28;20041;-84
2021/12/25 12:20:04;;;;;;;5.15;3.42;;;;;;;-145.45;100.00;62759.84;5199378;28;20030;-85
2021/12/25 12:22:48;;;;;;;5.07;3.10;;;;;;;-145.45;100.00;62759.84;5218222;28;20531;-85
2021/12/25 12:25:30;;;;;;;5.53;3.53;;;;;;;-145.45;100.00;62759.84;5216143;28;20037;-84
2021/12/25 12:28:02;;;;;;;4.65;3.30;;;;;;;-145.45;100.00;62759.84;5217343;28;20211;-84
2021/12/25 12:30:34;;;;;;;4.30;2.85;;;;;;;-145.45;100.00;62759.84;5200332;28;20119;-86
2021/12/25 12:33:11;;;;;;;6.28;3.75;;;;;;;-145.45;100.00;62759.84;5216361;28;20833;-84
2021/12/25 12:35:45;;;;;;;5.63;2.95;;;;;;;-145.45;100.00;62759.84;5220029;28;28123;-85
2021/12/25 12:41:16;;;;;;;4.43;2.50;;;;;;;-145.45;100.00;62759.84;5224384;28;20493;-84
2021/12/25 12:43:51;;;;;;;4.45;2.90;;;;;;;-145.45;100.00;62759.84;5220196;28;20105;-84
2021/12/25 12:46:25;;;;;;;5.60;3.13;;;;;;;-145.45;100.00;62759.84;5221081;28;20388;-84
2021/12/25 12:49:08;;;;;;;3.90;2.80;;;;;;;-145.45;100.00;62759.84;5204292;28;20487;-85
2021/12/25 12:51:39;;;;;;;3.55;2.80;;;;;;;-145.45;100.00;62759.84;5217533;28;20506;-85